createdAt,value
2019-02-16T00:02:27.192Z,8.08
2019-02-16T00:04:54.576Z,8.78
2019-02-16T00:07:21.960Z,9.43
2019-02-16T00:09:49.347Z,9.15
2019-02-16T00:12:16.694Z,8.70
2019-02-16T00:14:44.098Z,7.80
2019-02-16T00:17:11.437Z,8.80
2019-02-16T00:19:38.870Z,8.10
2019-02-16T00:22:06.538Z,9.35
2019-02-16T00:24:33.948Z,8.35
2019-02-16T00:27:01.290Z,8.95
2019-02-16T00:29:28.656Z,9.18
2019-02-16T00:31:56.035Z,8.78
2019-02-16T00:34:23.388Z,9.05
2019-02-16T00:36:50.638Z,8.83
2019-02-16T00:39:17.976Z,9.45
2019-02-16T00:41:45.258Z,10.03
2019-02-16T00:44:12.597Z,8.73
2019-02-16T00:46:39.956Z,9.08
2019-02-16T00:49:07.361Z,9.98
2019-02-16T00:51:34.700Z,9.88
2019-02-16T00:54:02.097Z,10.18
2019-02-16T00:56:29.520Z,9.90
2019-02-16T00:58:56.887Z,9.60
2019-02-16T01:01:24.234Z,10.50
2019-02-16T01:03:51.632Z,9.60
2019-02-16T01:06:18.987Z,8.83
2019-02-16T01:08:46.320Z,9.53
2019-02-16T01:11:13.538Z,8.28
2019-02-16T01:13:40.951Z,9.00
2019-02-16T01:16:08.201Z,8.58
2019-02-16T01:18:35.456Z,8.73
2019-02-16T01:21:02.893Z,8.48
2019-02-16T01:23:30.237Z,8.73
2019-02-16T01:25:57.629Z,9.60
2019-02-16T01:28:25.008Z,8.10
2019-02-16T01:30:52.398Z,8.28
2019-02-16T01:33:19.741Z,9.58
2019-02-16T01:35:47.025Z,8.30
2019-02-16T01:38:14.159Z,7.60
2019-02-16T01:40:41.541Z,8.10
2019-02-16T01:43:08.884Z,8.05
2019-02-16T01:45:36.305Z,7.33
2019-02-16T01:48:03.559Z,7.25
2019-02-16T01:50:30.762Z,7.40
2019-02-16T01:52:57.979Z,6.62
2019-02-16T01:55:25.383Z,6.55
2019-02-16T01:57:52.746Z,6.75
2019-02-16T02:00:20.112Z,6.40
2019-02-16T02:02:47.529Z,5.90
2019-02-16T02:05:14.834Z,6.58
2019-02-16T02:07:42.183Z,5.90
2019-02-16T02:10:09.566Z,5.97
2019-02-16T02:12:36.929Z,6.03
2019-02-16T02:15:05.044Z,6.22
2019-02-16T02:17:32.422Z,6.67
2019-02-16T02:19:59.936Z,6.62
2019-02-16T02:22:27.198Z,6.75
2019-02-16T02:24:54.597Z,7.53
2019-02-16T02:27:22.250Z,6.30
2019-02-16T02:29:49.670Z,6.12
2019-02-16T02:32:16.844Z,6.53
2019-02-16T02:34:44.110Z,6.33
2019-02-16T02:37:12.632Z,6.10
2019-02-16T02:39:39.915Z,6.62
2019-02-16T02:42:07.320Z,7.28
2019-02-16T02:44:34.660Z,6.12
2019-02-16T02:47:02.007Z,6.08
2019-02-16T02:49:29.408Z,6.70
2019-02-16T02:51:56.810Z,8.00
2019-02-16T02:54:24.175Z,7.30
2019-02-16T02:56:51.327Z,8.68
2019-02-16T02:59:18.696Z,7.45
2019-02-16T03:01:46.049Z,7.90
2019-02-16T03:04:13.306Z,7.53
2019-02-16T03:06:40.714Z,7.42
2019-02-16T03:09:07.878Z,7.00
2019-02-16T03:11:36.520Z,6.33
2019-02-16T03:14:03.892Z,5.87
2019-02-16T03:16:31.278Z,6.47
2019-02-16T03:18:58.710Z,6.30
2019-02-16T03:21:26.149Z,6.55
2019-02-16T03:23:53.510Z,5.92
2019-02-16T03:26:55.118Z,5.67
2019-02-16T03:29:51.851Z,5.90
2019-02-16T03:33:16.311Z,5.42
2019-02-16T03:36:46.804Z,5.70
2019-02-16T03:39:20.285Z,5.33
2019-02-16T03:41:47.654Z,5.28
2019-02-16T03:44:14.996Z,5.53
2019-02-16T03:46:42.203Z,5.47
2019-02-16T03:49:09.569Z,5.50
2019-02-16T03:51:36.708Z,5.37
2019-02-16T03:54:03.966Z,5.37
2019-02-16T03:56:31.346Z,5.45
2019-02-16T03:58:58.754Z,5.25
2019-02-16T04:01:26.141Z,5.30
2019-02-16T04:03:53.471Z,4.62
2019-02-16T04:06:20.780Z,5.53
2019-02-16T04:08:48.123Z,5.20
2019-02-16T04:11:15.539Z,5.10
2019-02-16T04:13:42.880Z,4.95
2019-02-16T04:16:10.233Z,4.60
2019-02-16T04:18:37.575Z,5.22
2019-02-16T04:21:05.011Z,5.47
2019-02-16T04:23:32.340Z,5.33
2019-02-16T04:25:59.687Z,5.60
2019-02-16T04:28:27.110Z,5.42
2019-02-16T04:30:54.348Z,5.67
2019-02-16T04:33:21.541Z,5.60
2019-02-16T04:35:48.858Z,5.83
2019-02-16T04:38:17.671Z,5.42
2019-02-16T04:40:44.994Z,5.95
2019-02-16T04:43:12.381Z,5.60
2019-02-16T04:45:39.769Z,6.37
2019-02-16T04:48:07.140Z,5.78
2019-02-16T04:50:34.582Z,5.97
2019-02-16T04:53:01.839Z,5.92
2019-02-16T04:55:29.282Z,5.83
2019-02-16T04:57:56.528Z,6.12
2019-02-16T05:00:23.862Z,5.95
2019-02-16T05:02:51.212Z,6.37
2019-02-16T05:05:18.523Z,6.30
2019-02-16T05:07:45.902Z,6.58
2019-02-16T05:10:13.250Z,6.10
2019-02-16T05:12:40.642Z,6.12
2019-02-16T05:15:08.081Z,6.47
2019-02-16T05:17:35.530Z,6.25
2019-02-16T05:20:02.953Z,6.05
2019-02-16T05:22:30.345Z,6.97
2019-02-16T05:24:57.816Z,6.92
2019-02-16T05:27:25.214Z,7.20
2019-02-16T05:29:52.561Z,7.10
2019-02-16T05:32:19.927Z,7.50
2019-02-16T05:34:47.224Z,7.47
2019-02-16T05:37:14.357Z,7.28
2019-02-16T05:39:41.523Z,7.33
2019-02-16T05:42:08.955Z,6.65
2019-02-16T05:44:36.313Z,6.83
2019-02-16T05:47:03.663Z,7.15
2019-02-16T05:49:30.990Z,6.83
2019-02-16T05:51:58.393Z,7.12
2019-02-16T05:54:25.745Z,7.20
2019-02-16T05:56:53.098Z,6.90
2019-02-16T05:59:20.474Z,6.83
2019-02-16T06:01:54.092Z,7.28
2019-02-16T06:04:16.962Z,7.25
2019-02-16T06:06:44.340Z,8.58
2019-02-16T06:09:11.703Z,7.33
2019-02-16T06:11:38.858Z,8.05
2019-02-16T06:14:06.214Z,7.62
2019-02-16T06:16:33.646Z,8.08
2019-02-16T06:19:01.062Z,7.58
2019-02-16T06:21:28.464Z,7.33
2019-02-16T06:23:55.765Z,7.78
2019-02-16T06:26:23.191Z,8.25
2019-02-16T06:28:50.499Z,8.50
2019-02-16T06:31:17.863Z,8.28
2019-02-16T06:33:45.325Z,7.80
2019-02-16T06:36:23.185Z,7.85
2019-02-16T06:38:50.487Z,6.97
2019-02-16T06:41:17.986Z,8.08
2019-02-16T06:43:45.384Z,7.80
2019-02-16T06:46:12.667Z,7.78
2019-02-16T06:48:40.043Z,7.30
2019-02-16T06:51:07.344Z,7.95
2019-02-16T06:53:34.801Z,7.05
2019-02-16T06:56:15.897Z,8.00
2019-02-16T06:58:43.283Z,7.30
2019-02-16T07:01:10.634Z,8.10
2019-02-16T07:03:38.890Z,8.08
2019-02-16T07:06:06.028Z,7.90
2019-02-16T07:08:33.370Z,7.75
2019-02-16T07:11:00.692Z,8.45
2019-02-16T07:13:28.155Z,7.45
2019-02-16T07:16:13.975Z,7.92
2019-02-16T07:18:46.218Z,8.18
2019-02-16T07:21:13.685Z,7.75
2019-02-16T07:23:41.050Z,7.25
2019-02-16T07:26:08.470Z,8.08
2019-02-16T07:28:35.840Z,8.60
2019-02-16T07:31:03.294Z,12.45
2019-02-16T07:33:30.734Z,9.88
2019-02-16T07:35:58.141Z,9.05
2019-02-16T07:38:25.545Z,9.05
2019-02-16T07:40:52.951Z,8.53
2019-02-16T07:43:42.437Z,9.65
2019-02-16T07:46:16.424Z,9.08
2019-02-16T07:48:50.638Z,8.25
2019-02-16T07:51:55.558Z,9.55
2019-02-16T07:54:42.220Z,7.97
2019-02-16T07:57:32.044Z,9.40
2019-02-16T08:00:18.958Z,9.30
2019-02-16T08:02:58.498Z,9.30
2019-02-16T08:05:43.792Z,7.78
2019-02-16T08:08:21.093Z,8.10
2019-02-16T08:11:10.666Z,7.97
2019-02-16T08:13:47.832Z,10.35
2019-02-16T08:16:41.006Z,9.63
2019-02-16T08:19:26.456Z,10.45
2019-02-16T08:22:02.516Z,9.93
2019-02-16T08:24:58.747Z,11.43
2019-02-16T08:27:36.061Z,11.68
2019-02-16T08:30:23.306Z,12.00
2019-02-16T08:33:06.942Z,10.35
2019-02-16T08:35:52.196Z,11.68
2019-02-16T08:38:28.862Z,12.28
2019-02-16T08:41:07.979Z,11.63
2019-02-16T08:43:43.948Z,12.13
2019-02-16T08:46:27.817Z,12.65
2019-02-16T08:49:08.139Z,12.75
2019-02-16T08:51:57.436Z,12.47
2019-02-16T08:54:50.391Z,10.65
2019-02-16T08:57:35.242Z,11.85
2019-02-16T09:00:19.796Z,10.95
2019-02-16T09:03:09.489Z,13.48
2019-02-16T09:05:52.099Z,13.32
2019-02-16T09:08:45.200Z,12.78
2019-02-16T09:11:31.156Z,12.78
2019-02-16T09:14:13.007Z,14.30
2019-02-16T09:16:47.028Z,13.53
2019-02-16T09:19:32.886Z,12.90
2019-02-16T09:22:31.691Z,13.53
2019-02-16T09:25:24.888Z,12.88
2019-02-16T09:28:15.005Z,12.75
2019-02-16T09:30:56.858Z,12.33
2019-02-16T09:33:47.270Z,12.78
2019-02-16T09:36:32.614Z,13.28
2019-02-16T09:39:20.848Z,13.58
2019-02-16T09:42:07.837Z,14.13
2019-02-16T09:44:42.726Z,15.00
2019-02-16T09:47:28.076Z,14.98
2019-02-16T09:50:17.968Z,14.20
2019-02-16T09:53:04.900Z,14.40
2019-02-16T09:55:44.833Z,15.30
2019-02-16T09:58:34.739Z,14.60
2019-02-16T10:01:20.595Z,15.58
2019-02-16T10:03:59.491Z,15.80
2019-02-16T10:06:45.324Z,15.75
2019-02-16T10:09:30.996Z,14.70
2019-02-16T10:12:17.914Z,13.62
2019-02-16T10:14:56.961Z,15.15
2019-02-16T10:17:52.411Z,15.00
2019-02-16T10:20:46.461Z,15.68
2019-02-16T10:23:20.751Z,13.85
2019-02-16T10:25:55.905Z,15.18
2019-02-16T10:28:35.522Z,14.98
2019-02-16T10:31:17.859Z,15.78
2019-02-16T10:34:07.980Z,14.50
2019-02-16T10:37:15.146Z,14.40
2019-02-16T10:40:02.014Z,14.60
2019-02-16T10:42:52.138Z,14.55
2019-02-16T10:45:29.252Z,15.63
2019-02-16T10:48:02.334Z,14.10
2019-02-16T10:50:38.367Z,15.13
2019-02-16T10:53:31.451Z,14.73
2019-02-16T10:56:08.457Z,14.40
2019-02-16T10:58:51.987Z,14.30
2019-02-16T11:01:38.922Z,14.53
2019-02-16T11:04:25.836Z,15.43
2019-02-16T11:07:17.312Z,14.73
2019-02-16T11:09:49.836Z,14.35
2019-02-16T11:12:35.838Z,13.95
2019-02-16T11:15:22.527Z,14.60
2019-02-16T11:18:11.914Z,14.03
2019-02-16T11:21:16.857Z,13.78
2019-02-16T11:24:01.291Z,13.85
2019-02-16T11:26:42.824Z,14.35
2019-02-16T11:29:30.818Z,15.20
2019-02-16T11:32:23.759Z,14.35
2019-02-16T11:35:01.306Z,13.98
2019-02-16T11:37:34.789Z,14.33
2019-02-16T11:40:27.238Z,13.45
2019-02-16T11:43:17.093Z,13.05
2019-02-16T11:46:19.316Z,14.23
2019-02-16T11:48:57.414Z,14.07
2019-02-16T11:51:52.859Z,12.73
2019-02-16T11:54:45.695Z,12.70
2019-02-16T11:57:31.382Z,13.20
2019-02-16T12:00:24.211Z,13.45
2019-02-16T12:03:19.059Z,13.62
2019-02-16T12:05:52.509Z,13.75
2019-02-16T12:08:42.478Z,14.30
2019-02-16T12:11:25.789Z,13.40
2019-02-16T12:14:18.774Z,13.28
2019-02-16T12:17:24.703Z,14.85
2019-02-16T12:20:33.125Z,14.18
2019-02-16T12:23:13.541Z,14.35
2019-02-16T12:25:50.287Z,14.87
2019-02-16T12:28:35.048Z,14.65
2019-02-16T12:31:19.894Z,14.28
2019-02-16T12:34:12.844Z,13.70
2019-02-16T12:36:50.644Z,13.78
2019-02-16T12:39:54.996Z,14.10
2019-02-16T12:42:39.280Z,14.30
2019-02-16T12:45:21.731Z,14.38
2019-02-16T12:48:17.983Z,13.85
2019-02-16T12:51:04.878Z,12.45
2019-02-16T12:53:50.010Z,12.63
2019-02-16T12:56:26.410Z,12.07
2019-02-16T12:59:07.997Z,13.68
2019-02-16T13:02:00.181Z,13.00
2019-02-16T13:04:50.144Z,13.78
2019-02-16T13:07:34.804Z,13.32
2019-02-16T13:10:39.897Z,14.43
2019-02-16T13:13:26.886Z,14.78
2019-02-16T13:16:09.559Z,14.63
2019-02-16T13:18:46.231Z,13.98
2019-02-16T13:21:45.401Z,14.43
2019-02-16T13:24:24.421Z,13.55
2019-02-16T13:27:14.582Z,14.70
2019-02-16T13:29:59.398Z,15.53
2019-02-16T13:32:44.725Z,15.28
2019-02-16T13:35:20.223Z,15.00
2019-02-16T13:38:09.970Z,14.45
2019-02-16T13:40:56.838Z,14.20
2019-02-16T13:43:43.710Z,15.83
2019-02-16T13:46:27.295Z,15.32
2019-02-16T13:49:16.744Z,13.25
2019-02-16T13:52:06.187Z,14.90
2019-02-16T13:54:53.145Z,14.30
2019-02-16T13:57:45.791Z,13.93
2019-02-16T14:00:27.300Z,13.95
2019-02-16T14:03:05.894Z,13.32
2019-02-16T14:05:42.082Z,14.47
2019-02-16T14:08:27.992Z,14.53
2019-02-16T14:11:14.387Z,14.03
2019-02-16T14:14:07.324Z,14.40
2019-02-16T14:16:44.058Z,11.90
2019-02-16T14:19:11.358Z,13.72
2019-02-16T14:21:38.841Z,12.88
2019-02-16T14:24:06.354Z,14.40
2019-02-16T14:26:33.785Z,11.80
2019-02-16T14:29:01.234Z,13.30
2019-02-16T14:31:28.906Z,13.20
2019-02-16T14:33:57.268Z,13.13
2019-02-16T14:36:24.822Z,14.45
2019-02-16T14:38:57.470Z,14.43
2019-02-16T14:41:24.899Z,13.80
2019-02-16T14:43:52.374Z,11.83
2019-02-16T14:46:20.069Z,13.55
2019-02-16T14:48:47.390Z,14.05
2019-02-16T14:51:14.859Z,13.32
2019-02-16T14:53:42.423Z,14.50
2019-02-16T14:56:09.809Z,13.43
2019-02-16T14:58:37.198Z,13.53
2019-02-16T15:01:04.620Z,14.98
2019-02-16T15:03:32.044Z,14.05
2019-02-16T15:05:59.518Z,14.23
2019-02-16T15:08:26.991Z,14.00
2019-02-16T15:10:55.596Z,14.03
2019-02-16T15:13:23.959Z,13.93
2019-02-16T15:15:51.339Z,14.65
2019-02-16T15:18:18.794Z,12.98
2019-02-16T15:20:46.239Z,12.37
2019-02-16T15:23:13.765Z,13.28
2019-02-16T15:25:41.211Z,12.90
2019-02-16T15:28:08.755Z,13.53
2019-02-16T15:30:37.436Z,14.45
2019-02-16T15:33:04.874Z,14.93
2019-02-16T15:35:32.413Z,14.05
2019-02-16T15:37:59.809Z,14.10
2019-02-16T15:40:27.194Z,14.45
2019-02-16T15:42:54.685Z,14.13
2019-02-16T15:45:22.041Z,11.78
2019-02-16T15:47:49.491Z,13.10
2019-02-16T15:50:16.972Z,12.20
2019-02-16T15:52:44.478Z,14.90
2019-02-16T15:55:11.975Z,14.93
2019-02-16T15:57:40.441Z,15.13
2019-02-16T16:00:13.772Z,14.95
2019-02-16T16:02:41.195Z,16.55
2019-02-16T16:05:09.804Z,14.73
2019-02-16T16:07:38.124Z,14.07
2019-02-16T16:10:18.638Z,14.87
2019-02-16T16:12:54.565Z,13.68
2019-02-16T16:15:44.139Z,13.93
2019-02-16T16:18:39.753Z,14.95
2019-02-16T16:21:16.500Z,14.58
2019-02-16T16:23:52.423Z,12.00
2019-02-16T16:26:29.053Z,12.53
2019-02-16T16:29:06.323Z,13.13
2019-02-16T16:32:11.451Z,20.50
2019-02-16T16:34:57.206Z,24.43
2019-02-16T16:37:43.592Z,23.15
2019-02-16T16:40:36.686Z,18.32
2019-02-16T16:43:26.651Z,19.10
2019-02-16T16:46:12.542Z,15.28
2019-02-16T16:49:09.587Z,13.75
2019-02-16T16:51:56.636Z,15.35
2019-02-16T16:54:42.483Z,17.52
2019-02-16T16:57:44.707Z,17.57
2019-02-16T17:00:30.634Z,18.32
2019-02-16T17:03:20.373Z,16.30
2019-02-16T17:05:55.906Z,15.25
2019-02-16T17:08:41.874Z,18.05
2019-02-16T17:11:31.701Z,18.10
2019-02-16T17:14:05.031Z,19.70
2019-02-16T17:16:50.981Z,18.82
2019-02-16T17:19:26.837Z,17.30
2019-02-16T17:22:11.735Z,15.55
2019-02-16T17:25:10.877Z,20.02
2019-02-16T17:27:49.145Z,19.32
2019-02-16T17:30:48.231Z,18.62
2019-02-16T17:33:35.543Z,15.50
2019-02-16T17:36:22.741Z,14.55
2019-02-16T17:39:05.877Z,15.28
2019-02-16T17:41:54.697Z,14.38
2019-02-16T17:44:40.489Z,14.28
2019-02-16T17:47:40.827Z,16.70
2019-02-16T17:50:30.734Z,18.45
2019-02-16T17:53:30.021Z,16.85
2019-02-16T17:56:15.355Z,19.12
2019-02-16T17:59:01.035Z,15.10
2019-02-16T18:01:48.837Z,17.57
2019-02-16T18:04:40.632Z,15.78
2019-02-16T18:07:15.628Z,18.30
2019-02-16T18:10:11.878Z,14.83
2019-02-16T18:12:56.542Z,16.50
2019-02-16T18:15:38.443Z,16.15
2019-02-16T18:18:15.228Z,16.37
2019-02-16T18:20:53.697Z,16.65
2019-02-16T18:23:35.837Z,15.48
2019-02-16T18:26:13.205Z,17.45
2019-02-16T18:28:57.245Z,15.72
2019-02-16T18:31:58.596Z,15.65
2019-02-16T18:34:37.806Z,14.98
2019-02-16T18:37:24.651Z,13.13
2019-02-16T18:40:18.570Z,13.28
2019-02-16T18:43:00.228Z,14.63
2019-02-16T18:45:36.931Z,15.80
2019-02-16T18:48:30.151Z,16.75
2019-02-16T18:51:09.907Z,14.70
2019-02-16T18:53:46.399Z,15.40
2019-02-16T18:56:39.386Z,15.20
2019-02-16T18:59:30.071Z,15.08
2019-02-16T19:02:08.554Z,14.38
2019-02-16T19:04:53.925Z,13.85
2019-02-16T19:07:40.870Z,13.43
2019-02-16T19:10:26.710Z,18.60
2019-02-16T19:13:22.734Z,23.20
2019-02-16T19:16:28.378Z,20.85
2019-02-16T19:19:12.178Z,16.07
2019-02-16T19:21:52.747Z,14.70
2019-02-16T19:24:45.807Z,14.70
2019-02-16T19:27:26.535Z,13.08
2019-02-16T19:30:16.754Z,14.10
2019-02-16T19:33:09.999Z,13.18
2019-02-16T19:35:45.263Z,15.40
2019-02-16T19:38:30.985Z,13.88
2019-02-16T19:41:08.047Z,13.95
2019-02-16T19:43:50.233Z,13.43
2019-02-16T19:46:46.659Z,19.32
2019-02-16T19:49:36.832Z,16.40
2019-02-16T19:52:35.643Z,17.57
2019-02-16T19:55:12.291Z,20.95
2019-02-16T19:57:58.390Z,27.20
2019-02-16T20:00:43.684Z,27.98
2019-02-16T20:03:29.688Z,25.23
2019-02-16T20:06:28.852Z,29.65
2019-02-16T20:09:14.005Z,22.02
2019-02-16T20:11:59.271Z,21.48
2019-02-16T20:14:40.795Z,19.27
2019-02-16T20:17:25.958Z,20.77
2019-02-16T20:20:18.780Z,16.12
2019-02-16T20:23:04.640Z,15.15
2019-02-16T20:26:03.430Z,15.70
2019-02-16T20:28:50.621Z,15.72
2019-02-16T20:31:41.721Z,13.25
2019-02-16T20:34:24.806Z,14.55
2019-02-16T20:37:00.790Z,14.73
2019-02-16T20:39:46.527Z,14.80
2019-02-16T20:42:45.713Z,15.28
2019-02-16T20:45:21.578Z,14.45
2019-02-16T20:47:56.941Z,14.90
2019-02-16T20:50:43.922Z,13.78
2019-02-16T20:53:26.551Z,14.83
2019-02-16T20:56:02.062Z,14.10
2019-02-16T20:58:41.909Z,19.05
2019-02-16T21:01:28.876Z,14.58
2019-02-16T21:04:14.879Z,14.93
2019-02-16T21:07:00.325Z,11.83
2019-02-16T21:09:45.890Z,13.75
2019-02-16T21:12:35.892Z,13.18
2019-02-16T21:15:21.634Z,19.15
2019-02-16T21:18:06.876Z,16.12
2019-02-16T21:20:50.966Z,16.67
2019-02-16T21:23:36.182Z,16.50
2019-02-16T21:26:39.782Z,13.45
2019-02-16T21:29:33.158Z,14.93
2019-02-16T21:32:23.140Z,12.58
2019-02-16T21:35:09.106Z,13.38
2019-02-16T21:38:14.438Z,13.88
2019-02-16T21:41:19.263Z,13.28
2019-02-16T21:44:03.081Z,13.72
2019-02-16T21:46:59.092Z,14.73
2019-02-16T21:49:49.039Z,13.72
2019-02-16T21:52:40.573Z,12.63
2019-02-16T21:55:16.555Z,12.73
2019-02-16T21:57:54.062Z,12.73
2019-02-16T22:00:35.416Z,12.70
2019-02-16T22:03:18.062Z,12.00
2019-02-16T22:06:14.116Z,11.90
2019-02-16T22:09:03.887Z,13.08
2019-02-16T22:12:02.051Z,14.63
2019-02-16T22:14:29.523Z,12.45
2019-02-16T22:16:56.894Z,11.40
2019-02-16T22:19:24.314Z,10.98
2019-02-16T22:21:51.723Z,11.22
2019-02-16T22:24:19.225Z,10.30
2019-02-16T22:26:46.833Z,10.75
2019-02-16T22:29:14.283Z,10.72
2019-02-16T22:31:41.592Z,10.23
2019-02-16T22:34:08.814Z,11.15
2019-02-16T22:36:36.151Z,10.00
2019-02-16T22:39:04.516Z,11.38
2019-02-16T22:41:33.078Z,10.48
2019-02-16T22:44:02.355Z,11.28
2019-02-16T22:46:30.033Z,11.18
2019-02-16T22:48:57.556Z,10.18
2019-02-16T22:51:24.943Z,11.30
2019-02-16T22:53:52.376Z,10.48
2019-02-16T22:56:19.823Z,10.38
2019-02-16T22:58:47.219Z,10.93
2019-02-16T23:01:14.636Z,11.97
2019-02-16T23:03:42.242Z,10.35
2019-02-16T23:06:09.784Z,10.43
2019-02-16T23:08:37.266Z,11.28
2019-02-16T23:11:04.585Z,11.05
2019-02-16T23:13:32.019Z,9.93
2019-02-16T23:15:59.470Z,9.88
2019-02-16T23:18:26.863Z,11.65
2019-02-16T23:20:54.309Z,9.98
2019-02-16T23:23:22.799Z,10.28
2019-02-16T23:25:50.193Z,10.65
2019-02-16T23:28:17.807Z,11.28
2019-02-16T23:30:45.374Z,10.85
2019-02-16T23:33:12.848Z,13.13
2019-02-16T23:35:40.238Z,11.60
2019-02-16T23:38:07.654Z,12.15
2019-02-16T23:40:36.261Z,11.50
2019-02-16T23:43:03.803Z,11.65
2019-02-16T23:45:31.305Z,11.57
2019-02-16T23:47:58.707Z,11.70
2019-02-16T23:50:26.153Z,11.30
2019-02-16T23:52:53.523Z,11.70
2019-02-16T23:55:20.959Z,10.95
2019-02-16T23:57:48.506Z,10.50
